createdAt,value
2017-07-09T00:01:01.050Z,10.20
2017-07-09T00:03:28.610Z,8.03
2017-07-09T00:05:56.413Z,7.77
2017-07-09T00:08:23.925Z,7.73
2017-07-09T00:10:51.451Z,12.23
2017-07-09T00:13:18.992Z,8.87
2017-07-09T00:15:46.518Z,10.63
2017-07-09T00:18:14.053Z,12.77
2017-07-09T00:20:41.604Z,10.57
2017-07-09T00:23:09.118Z,9.43
2017-07-09T00:25:36.667Z,12.03
2017-07-09T00:28:04.458Z,9.30
2017-07-09T00:30:31.974Z,7.53
2017-07-09T00:32:59.505Z,11.53
2017-07-09T00:35:27.062Z,10.53
2017-07-09T00:37:55.349Z,12.30
2017-07-09T00:40:22.898Z,13.50
2017-07-09T00:42:50.797Z,10.40
2017-07-09T00:45:18.329Z,11.07
2017-07-09T00:47:45.867Z,11.93
2017-07-09T00:50:13.402Z,11.70
2017-07-09T00:52:40.936Z,11.20
2017-07-09T00:55:08.474Z,13.37
2017-07-09T00:57:36.013Z,10.90
2017-07-09T01:00:04.316Z,10.97
2017-07-09T01:02:31.838Z,14.17
2017-07-09T01:04:59.760Z,10.93
2017-07-09T01:07:27.285Z,11.93
2017-07-09T01:09:54.796Z,13.23
2017-07-09T01:12:22.579Z,21.03
2017-07-09T01:14:50.099Z,10.60
2017-07-09T01:17:17.637Z,11.93
2017-07-09T01:19:45.463Z,8.87
2017-07-09T01:22:12.990Z,9.63
2017-07-09T01:24:40.523Z,15.03
2017-07-09T01:27:08.436Z,18.60
2017-07-09T01:29:35.951Z,14.83
2017-07-09T01:32:03.523Z,15.73
2017-07-09T01:34:31.511Z,11.80
2017-07-09T01:36:59.033Z,13.10
2017-07-09T01:39:26.538Z,9.50
2017-07-09T01:41:54.480Z,11.33
2017-07-09T01:44:22.012Z,8.40
2017-07-09T01:46:49.531Z,9.27
2017-07-09T01:49:17.075Z,10.00
2017-07-09T01:51:44.585Z,10.40
2017-07-09T01:54:12.577Z,16.27
2017-07-09T01:56:40.087Z,10.80
2017-07-09T01:59:07.616Z,10.93
2017-07-09T02:01:35.560Z,12.40
2017-07-09T02:04:03.092Z,14.50
2017-07-09T02:06:31.382Z,12.97
2017-07-09T02:08:58.922Z,12.20
2017-07-09T02:11:26.442Z,14.30
2017-07-09T02:13:53.967Z,26.73
2017-07-09T02:16:21.531Z,21.77
2017-07-09T02:18:49.064Z,26.73
2017-07-09T02:21:17.377Z,26.67
2017-07-09T02:23:44.910Z,29.13
2017-07-09T02:26:12.439Z,28.73
2017-07-09T02:28:39.971Z,33.87
2017-07-09T02:31:07.501Z,31.80
2017-07-09T02:33:35.015Z,42.33
2017-07-09T02:36:03.311Z,37.27
2017-07-09T02:38:31.618Z,37.80
2017-07-09T02:40:59.143Z,48.30
2017-07-09T02:43:26.704Z,50.30
2017-07-09T02:45:55.307Z,40.07
2017-07-09T02:48:22.830Z,44.53
2017-07-09T02:50:50.361Z,42.80
2017-07-09T02:53:17.910Z,47.77
2017-07-09T02:55:45.450Z,47.90
2017-07-09T02:58:13.522Z,51.07
2017-07-09T03:00:41.055Z,54.57
2017-07-09T03:03:08.598Z,57.00
2017-07-09T03:05:36.140Z,51.13
2017-07-09T03:08:04.087Z,53.30
2017-07-09T03:10:31.613Z,53.87
2017-07-09T03:12:59.158Z,57.83
2017-07-09T03:15:27.074Z,51.20
2017-07-09T03:17:54.603Z,45.83
2017-07-09T03:20:22.131Z,47.73
2017-07-09T03:22:49.665Z,32.80
2017-07-09T03:25:17.178Z,39.50
2017-07-09T03:27:44.703Z,40.20
2017-07-09T03:30:12.251Z,50.03
2017-07-09T03:32:39.853Z,45.30
2017-07-09T03:35:07.378Z,49.97
2017-07-09T03:37:34.914Z,45.30
2017-07-09T03:40:02.444Z,48.97
2017-07-09T03:42:29.967Z,44.37
2017-07-09T03:44:57.512Z,42.93
2017-07-09T03:47:25.056Z,50.57
2017-07-09T03:49:52.601Z,51.00
2017-07-09T03:52:20.421Z,50.53
2017-07-09T03:54:47.946Z,46.10
2017-07-09T03:57:15.481Z,53.20
2017-07-09T03:59:43.014Z,57.83
2017-07-09T04:02:10.532Z,57.27
2017-07-09T04:04:38.068Z,51.90
2017-07-09T04:07:05.599Z,49.40
2017-07-09T04:09:33.130Z,52.70
2017-07-09T04:12:00.646Z,59.37
2017-07-09T04:14:28.428Z,56.17
2017-07-09T04:16:55.955Z,60.03
2017-07-09T04:19:23.473Z,60.37
2017-07-09T04:21:51.774Z,64.63
2017-07-09T04:24:19.281Z,60.47
2017-07-09T04:26:46.833Z,63.87
2017-07-09T04:29:14.379Z,70.83
2017-07-09T04:31:41.919Z,64.27
2017-07-09T04:34:09.443Z,63.67
2017-07-09T04:36:37.246Z,56.53
2017-07-09T04:39:04.772Z,58.10
2017-07-09T04:41:32.307Z,58.07
2017-07-09T04:44:00.216Z,56.57
2017-07-09T04:46:27.742Z,31.63
2017-07-09T04:48:56.028Z,29.60
2017-07-09T04:51:23.553Z,33.57
2017-07-09T04:53:51.071Z,41.40
2017-07-09T04:56:18.605Z,42.70
2017-07-09T04:58:46.380Z,47.27
2017-07-09T05:01:13.909Z,43.20
2017-07-09T05:03:41.427Z,45.60
2017-07-09T05:06:08.991Z,41.87
2017-07-09T05:08:36.519Z,44.67
2017-07-09T05:11:04.037Z,49.50
2017-07-09T05:13:31.564Z,51.63
2017-07-09T05:15:59.082Z,44.20
2017-07-09T05:18:26.611Z,36.60
2017-07-09T05:20:54.529Z,33.23
2017-07-09T05:23:22.038Z,38.33
2017-07-09T05:25:49.562Z,30.67
2017-07-09T05:28:17.528Z,26.50
2017-07-09T05:30:45.063Z,31.40
2017-07-09T05:33:12.565Z,30.97
2017-07-09T05:35:40.114Z,29.90
2017-07-09T05:38:07.632Z,32.70
2017-07-09T05:40:35.181Z,35.90
2017-07-09T05:43:02.742Z,31.77
2017-07-09T05:45:30.267Z,43.70
2017-07-09T05:47:57.799Z,42.97
2017-07-09T05:50:25.332Z,43.53
2017-07-09T05:52:52.873Z,43.03
2017-07-09T05:55:20.402Z,46.00
2017-07-09T05:57:47.925Z,53.63
2017-07-09T06:00:15.467Z,44.10
2017-07-09T06:02:43.023Z,53.43
2017-07-09T06:05:10.556Z,47.70
2017-07-09T06:07:38.089Z,45.20
2017-07-09T06:10:05.618Z,52.50
2017-07-09T06:12:33.149Z,49.17
2017-07-09T06:15:00.694Z,56.63
2017-07-09T06:17:29.039Z,57.40
2017-07-09T06:19:56.987Z,55.67
2017-07-09T06:22:24.548Z,49.50
2017-07-09T06:24:52.079Z,53.73
2017-07-09T06:27:19.666Z,53.37
2017-07-09T06:29:47.194Z,48.63
2017-07-09T06:32:14.735Z,46.10
2017-07-09T06:34:43.015Z,46.27
2017-07-09T06:37:11.655Z,49.27
2017-07-09T06:39:39.193Z,49.93
2017-07-09T06:42:06.730Z,50.87
2017-07-09T06:44:34.275Z,53.67
2017-07-09T06:47:02.555Z,47.10
2017-07-09T06:49:30.113Z,45.33
2017-07-09T06:51:58.441Z,39.93
2017-07-09T06:54:25.983Z,44.23
2017-07-09T06:56:53.501Z,44.13
2017-07-09T06:59:22.148Z,45.50
2017-07-09T07:01:49.695Z,43.73
2017-07-09T07:04:17.256Z,46.60
2017-07-09T07:06:45.041Z,38.73
2017-07-09T07:09:12.587Z,35.50
2017-07-09T07:11:40.891Z,34.20
2017-07-09T07:14:08.425Z,41.23
2017-07-09T07:16:35.961Z,36.27
2017-07-09T07:19:06.961Z,34.73
2017-07-09T07:21:34.518Z,36.90
2017-07-09T07:24:02.047Z,39.57
2017-07-09T07:26:29.876Z,40.47
2017-07-09T07:28:57.436Z,33.47
2017-07-09T07:31:24.958Z,32.87
2017-07-09T07:33:53.727Z,34.33
2017-07-09T07:36:22.032Z,39.43
2017-07-09T07:38:50.326Z,36.33
2017-07-09T07:41:18.337Z,34.00
2017-07-09T07:43:45.875Z,34.20
2017-07-09T07:46:13.432Z,34.30
2017-07-09T07:48:41.259Z,30.37
2017-07-09T07:51:09.184Z,32.77
2017-07-09T07:53:36.750Z,33.10
2017-07-09T07:56:04.701Z,30.50
2017-07-09T07:58:32.211Z,25.80
2017-07-09T08:01:00.529Z,25.60
2017-07-09T08:03:28.075Z,27.70
2017-07-09T08:05:55.612Z,26.90
2017-07-09T08:08:24.248Z,27.43
2017-07-09T08:10:52.126Z,27.00
2017-07-09T08:13:19.660Z,25.27
2017-07-09T08:15:47.235Z,27.03
2017-07-09T08:18:14.799Z,20.47
2017-07-09T08:20:42.362Z,22.33
2017-07-09T08:23:09.905Z,22.30
2017-07-09T08:25:37.897Z,24.33
2017-07-09T08:28:05.750Z,20.57
2017-07-09T08:30:33.570Z,18.60
2017-07-09T08:33:01.185Z,16.70
2017-07-09T08:35:29.575Z,15.97
2017-07-09T08:37:57.144Z,15.17
2017-07-09T08:40:25.105Z,14.53
2017-07-09T08:42:52.669Z,12.33
2017-07-09T08:45:20.857Z,14.37
2017-07-09T08:47:49.496Z,18.07
2017-07-09T08:50:17.070Z,14.27
2017-07-09T08:52:44.599Z,15.40
2017-07-09T08:55:12.487Z,16.90
2017-07-09T08:57:40.025Z,16.40
2017-07-09T09:00:07.576Z,15.20
2017-07-09T09:02:35.137Z,12.50
2017-07-09T09:05:02.672Z,12.93
2017-07-09T09:07:30.243Z,13.57
2017-07-09T09:09:58.097Z,13.13
2017-07-09T09:12:26.419Z,13.50
2017-07-09T09:14:53.961Z,12.83
2017-07-09T09:17:21.528Z,13.53
2017-07-09T09:19:49.063Z,12.30
2017-07-09T09:22:16.626Z,12.20
2017-07-09T09:24:44.629Z,10.80
2017-07-09T09:27:12.169Z,15.33
2017-07-09T09:29:39.727Z,11.27
2017-07-09T09:32:07.634Z,13.70
2017-07-09T09:34:35.172Z,14.30
2017-07-09T09:37:02.719Z,14.30
2017-07-09T09:39:30.262Z,14.10
2017-07-09T09:41:57.811Z,11.70
2017-07-09T09:44:25.344Z,13.53
2017-07-09T09:46:52.887Z,11.53
2017-07-09T09:49:20.458Z,14.50
2017-07-09T09:51:48.021Z,13.93
2017-07-09T09:54:15.848Z,12.80
2017-07-09T09:56:43.364Z,11.37
2017-07-09T09:59:10.910Z,12.73
2017-07-09T10:01:39.486Z,12.27
2017-07-09T10:04:07.031Z,13.10
2017-07-09T10:06:34.576Z,12.30
2017-07-09T10:09:02.439Z,12.80
2017-07-09T10:11:30.018Z,13.00
2017-07-09T10:13:57.550Z,10.77
2017-07-09T10:16:25.416Z,9.77
2017-07-09T10:18:52.954Z,9.03
2017-07-09T10:21:20.517Z,9.10
2017-07-09T10:23:48.510Z,8.17
2017-07-09T10:26:16.062Z,9.87
2017-07-09T10:28:43.604Z,14.03
2017-07-09T10:31:11.505Z,7.43
2017-07-09T10:33:39.043Z,7.80
2017-07-09T10:36:06.600Z,7.10
2017-07-09T10:38:34.492Z,6.73
2017-07-09T10:41:02.025Z,6.97
2017-07-09T10:43:29.539Z,7.50
2017-07-09T10:45:57.104Z,7.37
2017-07-09T10:48:24.654Z,7.30
2017-07-09T10:50:52.196Z,6.80
2017-07-09T10:53:19.760Z,7.30
2017-07-09T10:55:47.610Z,7.87
2017-07-09T10:58:15.143Z,6.87
2017-07-09T11:00:42.674Z,6.57
2017-07-09T11:03:10.974Z,6.70
2017-07-09T11:05:38.521Z,6.23
2017-07-09T11:08:06.047Z,8.73
2017-07-09T11:10:34.689Z,9.97
2017-07-09T11:13:02.230Z,5.37
2017-07-09T11:15:29.758Z,7.10
2017-07-09T11:17:57.290Z,5.40
2017-07-09T11:20:24.820Z,4.97
2017-07-09T11:22:52.350Z,4.73
2017-07-09T11:25:20.282Z,5.07
2017-07-09T11:27:47.798Z,5.30
2017-07-09T11:30:15.329Z,5.07
2017-07-09T11:32:42.878Z,5.10
2017-07-09T11:35:10.384Z,5.10
2017-07-09T11:37:37.903Z,5.73
2017-07-09T11:40:05.460Z,8.07
2017-07-09T11:42:33.766Z,6.90
2017-07-09T11:45:01.333Z,5.13
2017-07-09T11:47:29.231Z,5.97
2017-07-09T11:49:56.771Z,6.13
2017-07-09T11:52:24.318Z,5.30
2017-07-09T11:54:52.132Z,6.23
2017-07-09T11:57:19.664Z,6.53
2017-07-09T11:59:47.198Z,7.93
2017-07-09T12:02:14.759Z,6.27
2017-07-09T12:04:42.298Z,5.63
2017-07-09T12:07:09.855Z,5.50
2017-07-09T12:09:37.642Z,7.30
2017-07-09T12:12:05.170Z,6.03
2017-07-09T12:14:32.697Z,6.83
2017-07-09T12:17:00.256Z,6.40
2017-07-09T12:19:27.775Z,6.13
2017-07-09T12:21:55.320Z,8.67
2017-07-09T12:24:22.864Z,7.70
2017-07-09T12:26:50.386Z,5.90
2017-07-09T12:29:17.948Z,7.10
2017-07-09T12:31:45.764Z,7.77
2017-07-09T12:34:13.295Z,6.30
2017-07-09T12:36:40.835Z,6.67
2017-07-09T12:39:08.379Z,5.87
2017-07-09T12:41:35.912Z,6.73
2017-07-09T12:44:03.800Z,6.17
2017-07-09T12:46:31.326Z,6.90
2017-07-09T12:48:58.855Z,6.00
2017-07-09T12:51:26.947Z,7.00
2017-07-09T12:53:54.705Z,6.90
2017-07-09T12:56:22.563Z,6.70
2017-07-09T12:58:51.814Z,6.17
2017-07-09T13:01:19.589Z,6.80
2017-07-09T13:03:47.796Z,6.50
2017-07-09T13:06:17.839Z,7.10
2017-07-09T13:08:45.659Z,7.00
2017-07-09T13:11:13.475Z,7.50
2017-07-09T13:13:42.635Z,7.50
2017-07-09T13:16:12.715Z,10.80
2017-07-09T13:18:40.737Z,7.80
2017-07-09T13:21:10.696Z,8.93
2017-07-09T13:23:38.572Z,9.90
2017-07-09T13:26:11.584Z,10.63
2017-07-09T13:28:39.961Z,13.97
2017-07-09T13:31:07.720Z,12.13
2017-07-09T13:33:36.840Z,9.23
2017-07-09T13:36:04.873Z,9.13
2017-07-09T13:38:32.751Z,8.90
2017-07-09T13:41:00.461Z,10.43
2017-07-09T13:43:28.793Z,8.67
2017-07-09T13:46:01.087Z,8.20
2017-07-09T13:48:28.729Z,8.33
2017-07-09T13:50:57.423Z,7.70
2017-07-09T13:53:25.164Z,8.13
2017-07-09T13:55:54.216Z,8.73
2017-07-09T13:58:21.908Z,8.33
2017-07-09T14:00:49.571Z,8.60
2017-07-09T14:03:20.754Z,8.33
2017-07-09T14:05:49.607Z,7.27
2017-07-09T14:08:18.406Z,8.40
2017-07-09T14:10:47.643Z,7.97
2017-07-09T14:13:15.690Z,7.40
2017-07-09T14:15:44.258Z,6.40
2017-07-09T14:18:12.506Z,6.37
2017-07-09T14:20:40.476Z,5.77
2017-07-09T14:23:12.803Z,5.90
2017-07-09T14:25:41.076Z,6.47
2017-07-09T14:28:10.809Z,6.30
2017-07-09T14:30:39.174Z,8.77
2017-07-09T14:33:07.008Z,6.70
2017-07-09T14:35:34.559Z,5.73
2017-07-09T14:38:02.084Z,5.87
2017-07-09T14:40:30.366Z,5.70
2017-07-09T14:42:57.889Z,5.53
2017-07-09T14:45:25.434Z,5.53
2017-07-09T14:47:53.278Z,5.40
2017-07-09T14:50:20.784Z,5.83
2017-07-09T14:52:49.075Z,6.40
2017-07-09T14:55:17.633Z,6.33
2017-07-09T14:57:45.144Z,4.63
2017-07-09T15:00:12.656Z,6.00
2017-07-09T15:02:40.471Z,7.40
2017-07-09T15:05:08.006Z,6.43
2017-07-09T15:07:35.519Z,5.67
2017-07-09T15:10:03.435Z,5.87
2017-07-09T15:12:30.943Z,5.70
2017-07-09T15:14:58.451Z,5.70
2017-07-09T15:17:25.978Z,5.77
2017-07-09T15:19:53.529Z,6.00
2017-07-09T15:22:21.032Z,6.20
2017-07-09T15:24:48.833Z,6.80
2017-07-09T15:27:16.349Z,5.70
2017-07-09T15:29:43.860Z,7.53
2017-07-09T15:32:11.799Z,6.87
2017-07-09T15:34:39.311Z,6.90
2017-07-09T15:37:07.591Z,5.83
2017-07-09T15:39:35.897Z,6.27
2017-07-09T15:42:03.417Z,5.87
2017-07-09T15:44:30.929Z,7.67
2017-07-09T15:46:58.727Z,6.30
2017-07-09T15:49:26.228Z,5.77
2017-07-09T15:51:53.768Z,7.90
2017-07-09T15:54:22.063Z,5.93
2017-07-09T15:56:49.582Z,6.30
2017-07-09T15:59:17.114Z,6.50
2017-07-09T16:01:44.969Z,6.40
2017-07-09T16:04:12.501Z,6.17
2017-07-09T16:06:40.004Z,6.37
2017-07-09T16:09:07.531Z,6.47
2017-07-09T16:11:35.048Z,6.30
2017-07-09T16:14:02.577Z,5.60
2017-07-09T16:16:30.384Z,6.27
2017-07-09T16:18:57.902Z,7.60
2017-07-09T16:21:25.484Z,6.50
2017-07-09T16:23:53.305Z,6.80
2017-07-09T16:26:20.856Z,6.63
2017-07-09T16:28:48.401Z,6.87
2017-07-09T16:31:15.977Z,7.67
2017-07-09T16:33:43.530Z,6.10
2017-07-09T16:36:11.097Z,5.73
2017-07-09T16:38:38.689Z,6.00
2017-07-09T16:41:06.226Z,8.53
2017-07-09T16:43:33.758Z,6.43
2017-07-09T16:46:01.567Z,7.23
2017-07-09T16:48:29.077Z,7.60
2017-07-09T16:50:56.641Z,6.77
2017-07-09T16:53:24.472Z,6.53
2017-07-09T16:55:51.997Z,7.40
2017-07-09T16:58:19.578Z,6.37
2017-07-09T17:00:47.397Z,6.40
2017-07-09T17:03:14.921Z,6.10
2017-07-09T17:05:42.431Z,7.27
2017-07-09T17:08:09.952Z,7.17
2017-07-09T17:10:38.060Z,6.73
2017-07-09T17:13:05.571Z,7.97
2017-07-09T17:15:34.124Z,6.40
2017-07-09T17:18:01.653Z,6.03
2017-07-09T17:20:29.182Z,6.50
2017-07-09T17:22:57.716Z,6.50
2017-07-09T17:25:25.354Z,6.23
2017-07-09T17:27:53.249Z,6.83
2017-07-09T17:30:20.781Z,6.80
2017-07-09T17:32:48.305Z,7.37
2017-07-09T17:35:16.611Z,6.77
2017-07-09T17:37:44.403Z,6.60
2017-07-09T17:40:11.917Z,7.23
2017-07-09T17:42:40.207Z,7.23
2017-07-09T17:45:07.731Z,6.40
2017-07-09T17:47:35.263Z,6.83
2017-07-09T17:50:02.797Z,7.80
2017-07-09T17:52:30.349Z,8.10
2017-07-09T17:54:57.853Z,6.43
2017-07-09T17:57:25.400Z,7.47
2017-07-09T17:59:52.920Z,7.87
2017-07-09T18:02:20.461Z,8.53
2017-07-09T18:04:47.980Z,7.43
2017-07-09T18:07:15.506Z,8.97
2017-07-09T18:09:43.043Z,8.13
2017-07-09T18:12:11.650Z,8.87
2017-07-09T18:14:42.454Z,8.63
2017-07-09T18:17:11.623Z,9.23
2017-07-09T18:19:39.556Z,9.93
2017-07-09T18:22:07.086Z,9.07
2017-07-09T18:24:35.393Z,12.63
2017-07-09T18:27:02.941Z,11.93
2017-07-09T18:29:30.465Z,14.50
2017-07-09T18:31:58.033Z,11.70
2017-07-09T18:34:25.559Z,11.03
2017-07-09T18:36:53.452Z,9.27
2017-07-09T18:39:21.016Z,10.77
2017-07-09T18:41:48.615Z,11.20
2017-07-09T18:44:18.249Z,8.70
2017-07-09T18:46:45.777Z,9.00
2017-07-09T18:49:13.296Z,8.03
2017-07-09T18:51:41.938Z,8.00
2017-07-09T18:54:09.470Z,8.07
2017-07-09T18:56:37.050Z,9.60
2017-07-09T18:59:07.001Z,10.10
2017-07-09T19:01:34.552Z,8.50
2017-07-09T19:04:02.072Z,9.77
2017-07-09T19:06:29.877Z,10.90
2017-07-09T19:08:57.445Z,9.40
2017-07-09T19:11:25.008Z,11.30
2017-07-09T19:13:52.629Z,10.93
2017-07-09T19:16:20.180Z,8.50
2017-07-09T19:18:47.728Z,19.07
2017-07-09T19:21:15.957Z,11.70
2017-07-09T19:23:43.751Z,9.63
2017-07-09T19:26:11.417Z,11.87
2017-07-09T19:28:39.238Z,9.93
2017-07-09T19:31:06.781Z,12.67
2017-07-09T19:33:34.336Z,12.87
2017-07-09T19:36:01.899Z,13.60
2017-07-09T19:38:29.511Z,10.73
2017-07-09T19:40:57.081Z,11.03
2017-07-09T19:43:25.448Z,10.50
2017-07-09T19:45:53.432Z,10.60
2017-07-09T19:48:20.957Z,11.47
2017-07-09T19:50:48.914Z,12.60
2017-07-09T19:53:16.436Z,11.80
2017-07-09T19:55:43.981Z,11.57
2017-07-09T19:58:11.542Z,15.83
2017-07-09T20:00:39.115Z,13.13
2017-07-09T20:03:06.688Z,14.97
2017-07-09T20:05:34.259Z,13.47
2017-07-09T20:08:01.806Z,14.13
2017-07-09T20:10:29.408Z,13.50
2017-07-09T20:12:56.921Z,14.03
2017-07-09T20:15:24.898Z,13.07
2017-07-09T20:17:52.455Z,14.87
2017-07-09T20:20:20.019Z,19.57
2017-07-09T20:22:47.569Z,16.03
2017-07-09T20:25:15.114Z,15.20
2017-07-09T20:27:42.665Z,15.17
2017-07-09T20:30:10.461Z,19.87
2017-07-09T20:32:38.007Z,14.60
2017-07-09T20:35:05.541Z,17.70
2017-07-09T20:37:33.379Z,11.17
2017-07-09T20:40:00.922Z,8.90
2017-07-09T20:42:28.469Z,11.30
2017-07-09T20:44:56.008Z,12.33
2017-07-09T20:47:24.266Z,9.43
2017-07-09T20:49:51.830Z,7.63
2017-07-09T20:52:19.377Z,8.00
2017-07-09T20:54:46.928Z,6.13
2017-07-09T20:57:15.230Z,7.57
2017-07-09T20:59:43.041Z,7.40
2017-07-09T21:02:10.565Z,8.63
2017-07-09T21:04:38.088Z,6.00
2017-07-09T21:07:05.652Z,5.40
2017-07-09T21:09:33.945Z,5.03
2017-07-09T21:12:01.495Z,4.20
2017-07-09T21:14:29.408Z,5.70
2017-07-09T21:16:56.943Z,4.10
2017-07-09T21:19:24.495Z,4.13
2017-07-09T21:21:52.029Z,3.70
2017-07-09T21:24:20.358Z,3.47
2017-07-09T21:26:47.894Z,3.33
2017-07-09T21:29:15.440Z,3.43
2017-07-09T21:31:42.965Z,4.50
2017-07-09T21:34:10.493Z,3.13
2017-07-09T21:36:38.307Z,3.53
2017-07-09T21:39:05.859Z,3.67
2017-07-09T21:41:34.148Z,3.70
2017-07-09T21:44:01.685Z,2.97
2017-07-09T21:46:29.216Z,3.90
2017-07-09T21:48:56.752Z,5.20
2017-07-09T21:51:24.726Z,3.43
2017-07-09T21:53:52.259Z,7.13
2017-07-09T21:56:19.771Z,3.53
2017-07-09T21:58:47.731Z,4.40
2017-07-09T22:01:15.247Z,7.27
2017-07-09T22:03:42.785Z,4.57
2017-07-09T22:06:10.802Z,5.53
2017-07-09T22:08:38.323Z,5.83
2017-07-09T22:11:05.835Z,4.20
2017-07-09T22:13:33.686Z,5.07
2017-07-09T22:16:01.205Z,4.63
2017-07-09T22:18:28.734Z,4.63
2017-07-09T22:20:56.294Z,3.93
2017-07-09T22:23:23.851Z,3.73
2017-07-09T22:25:51.394Z,4.37
2017-07-09T22:28:18.913Z,3.67
2017-07-09T22:30:46.467Z,3.23
2017-07-09T22:33:13.999Z,3.47
2017-07-09T22:35:41.553Z,3.23
2017-07-09T22:38:09.088Z,6.20
2017-07-09T22:40:36.620Z,3.60
2017-07-09T22:43:04.142Z,3.90
2017-07-09T22:45:31.670Z,5.43
2017-07-09T22:47:59.208Z,4.03
2017-07-09T22:50:26.734Z,3.93
2017-07-09T22:52:54.275Z,3.47
2017-07-09T22:55:21.795Z,3.50
2017-07-09T22:57:49.334Z,4.43
2017-07-09T23:00:17.155Z,3.73
2017-07-09T23:02:44.675Z,7.43
2017-07-09T23:05:12.204Z,3.97
2017-07-09T23:07:39.753Z,5.10
2017-07-09T23:10:07.282Z,6.53
2017-07-09T23:12:34.846Z,5.03
2017-07-09T23:15:02.780Z,4.83
2017-07-09T23:17:30.321Z,6.30
2017-07-09T23:19:58.023Z,4.80
2017-07-09T23:22:25.753Z,4.87
2017-07-09T23:24:53.407Z,5.30
2017-07-09T23:27:20.932Z,6.37
2017-07-09T23:29:48.477Z,6.47
2017-07-09T23:32:16.014Z,7.43
2017-07-09T23:34:43.540Z,7.63
2017-07-09T23:37:11.092Z,7.67
2017-07-09T23:39:38.620Z,7.40
2017-07-09T23:42:06.133Z,5.97
2017-07-09T23:44:33.955Z,8.27
2017-07-09T23:47:01.487Z,6.90
2017-07-09T23:49:29.019Z,8.07
2017-07-09T23:51:56.644Z,8.77
2017-07-09T23:54:24.187Z,9.67
2017-07-09T23:56:51.707Z,7.07
2017-07-09T23:59:19.255Z,13.47
